Time;durP1;ratioP1;P1;durP2;ratioP2;P2;SDS_P1;SDS_P2;PMS_P1;PMS_P2;Temp;Humidity;BMP_temperature;BMP_pressure;BME280_temperature;BME280_humidity;BME280_pressure;Samples;Min_cycle;Max_cycle;Signal;HPM_P1;HPM_P2
2021/12/02 00:02:11;;;;;;;9.50;8.90;;;;;;;;;;4888745;29;20189;-77
2021/12/02 00:04:38;;;;;;;9.20;8.70;;;;;;;;;;4889379;29;20119;-76
2021/12/02 00:07:07;;;;;;;9.35;8.77;;;;;;;;;;4890997;29;20045;-77
2021/12/02 00:09:35;;;;;;;9.50;8.90;;;;;;;;;;4891086;29;20654;-77
2021/12/02 00:12:02;;;;;;;9.23;8.70;;;;;;;;;;4879643;29;20083;-77
2021/12/02 00:14:37;;;;;;;9.50;9.00;;;;;;;;;;4882294;29;20092;-77
2021/12/02 00:17:05;;;;;;;9.48;8.70;;;;;;;;;;4885010;29;20037;-77
2021/12/02 00:22:18;;;;;;;9.57;8.98;;;;;;;;;;4891934;29;20536;-77
2021/12/02 00:24:46;;;;;;;9.80;9.20;;;;;;;;;;4891014;29;20056;-77
2021/12/02 00:27:13;;;;;;;9.37;8.87;;;;;;;;;;4888088;29;20131;-77
2021/12/02 00:29:44;;;;;;;9.63;9.05;;;;;;;;;;4895993;29;20648;-77
2021/12/02 00:32:10;;;;;;;9.90;9.30;;;;;;;;;;4892163;29;20184;-77
2021/12/02 00:34:44;;;;;;;9.68;9.10;;;;;;;;;;4890027;29;20500;-77
2021/12/02 00:37:10;;;;;;;9.18;8.68;;;;;;;;;;4890203;29;20051;-76
2021/12/02 00:39:37;;;;;;;9.30;8.80;;;;;;;;;;4890136;29;20037;-77
2021/12/02 00:42:03;;;;;;;9.30;8.70;;;;;;;;;;4893929;29;20048;-76
2021/12/02 00:44:32;;;;;;;9.10;8.60;;;;;;;;;;4891921;29;20082;-78
2021/12/02 00:46:58;;;;;;;8.98;8.48;;;;;;;;;;4893889;29;20040;-76
2021/12/02 00:49:23;;;;;;;9.10;8.40;;;;;;;;;;4894322;29;20115;-77
2021/12/02 00:51:56;;;;;;;9.10;8.60;;;;;;;;;;4893708;29;20260;-77
2021/12/02 00:54:24;;;;;;;9.18;8.68;;;;;;;;;;4904588;29;20078;-76
2021/12/02 00:56:51;;;;;;;9.18;8.68;;;;;;;;;;4893400;29;20036;-76
2021/12/02 00:59:17;;;;;;;9.20;8.70;;;;;;;;;;4892800;29;20106;-76
2021/12/02 01:01:43;;;;;;;9.18;8.57;;;;;;;;;;4892488;29;20103;-76
2021/12/02 01:04:12;;;;;;;9.05;8.45;;;;;;;;;;4888235;29;20715;-76
2021/12/02 01:06:39;;;;;;;9.50;8.90;;;;;;;;;;4890935;29;20033;-77
2021/12/02 01:09:24;;;;;;;9.10;8.52;;;;;;;;;;4897487;29;20036;-77
2021/12/02 01:11:53;;;;;;;9.00;8.50;;;;;;;;;;4909844;29;20032;-77
2021/12/02 01:14:19;;;;;;;9.60;9.10;;;;;;;;;;4903278;29;20032;-77
2021/12/02 01:16:45;;;;;;;9.52;8.90;;;;;;;;;;4906616;29;20040;-76
2021/12/02 01:19:11;;;;;;;8.98;8.48;;;;;;;;;;4904283;29;20047;-77
2021/12/02 01:21:40;;;;;;;9.25;8.75;;;;;;;;;;4896453;29;20036;-77
2021/12/02 01:24:07;;;;;;;9.40;8.88;;;;;;;;;;4892013;29;20179;-77
2021/12/02 01:26:35;;;;;;;9.82;9.13;;;;;;;;;;4893568;29;20074;-77
2021/12/02 01:29:02;;;;;;;9.70;9.10;;;;;;;;;;4894652;29;20036;-77
2021/12/02 01:31:34;;;;;;;9.30;8.80;;;;;;;;;;4907176;29;20040;-77
2021/12/02 01:34:02;;;;;;;9.27;8.65;;;;;;;;;;4890619;29;20051;-76
2021/12/02 01:36:37;;;;;;;9.37;8.77;;;;;;;;;;4891114;29;20070;-77
2021/12/02 01:39:12;;;;;;;9.43;8.82;;;;;;;;;;4890579;29;20096;-76
2021/12/02 01:41:45;;;;;;;9.60;9.10;;;;;;;;;;4888905;29;20036;-76
2021/12/02 01:44:13;;;;;;;9.63;9.07;;;;;;;;;;4887647;29;20056;-76
2021/12/02 01:46:39;;;;;;;9.07;8.57;;;;;;;;;;4892527;29;20042;-77
2021/12/02 01:49:07;;;;;;;9.00;8.45;;;;;;;;;;4893008;29;20040;-77
2021/12/02 01:55:16;;;;;;;9.02;8.52;;;;;;;;;;4890085;29;20041;-77
2021/12/02 01:57:59;;;;;;;9.35;8.75;;;;;;;;;;4890715;29;20491;-77
2021/12/02 02:00:27;;;;;;;8.60;8.00;;;;;;;;;;4891120;29;20036;-77
2021/12/02 02:02:53;;;;;;;8.68;8.00;;;;;;;;;;4891205;29;20056;-77
2021/12/02 02:05:19;;;;;;;8.57;7.82;;;;;;;;;;4889537;29;20040;-77
2021/12/02 02:07:54;;;;;;;8.32;7.82;;;;;;;;;;4889272;29;20055;-76
2021/12/02 02:10:20;;;;;;;8.52;8.02;;;;;;;;;;4888199;29;20033;-77
2021/12/02 02:12:46;;;;;;;8.70;8.10;;;;;;;;;;4890798;29;21503;-77
2021/12/02 02:15:12;;;;;;;9.27;8.63;;;;;;;;;;4887966;29;20048;-76
2021/12/02 02:21:04;;;;;;;9.18;8.30;;;;;;;;;;4885399;29;20059;-77
2021/12/02 02:23:33;;;;;;;8.82;8.23;;;;;;;;;;4892168;29;20113;-78
2021/12/02 02:26:00;;;;;;;8.98;8.23;;;;;;;;;;4897008;29;20057;-77
2021/12/02 02:28:28;;;;;;;9.27;8.50;;;;;;;;;;4893254;29;20065;-77
2021/12/02 02:30:54;;;;;;;9.00;8.30;;;;;;;;;;4884845;29;20436;-76
2021/12/02 02:33:20;;;;;;;8.77;8.18;;;;;;;;;;4890516;29;20037;-77
2021/12/02 02:35:47;;;;;;;9.15;8.27;;;;;;;;;;4889382;29;20037;-77
2021/12/02 02:38:16;;;;;;;9.40;8.70;;;;;;;;;;4885566;29;20178;-77
2021/12/02 02:40:46;;;;;;;9.07;8.50;;;;;;;;;;4889642;29;20063;-77
2021/12/02 02:43:20;;;;;;;10.82;8.82;;;;;;;;;;4888471;29;20423;-77
2021/12/02 02:45:46;;;;;;;9.52;8.82;;;;;;;;;;4890514;29;20071;-77
2021/12/02 02:48:11;;;;;;;9.40;8.70;;;;;;;;;;4894499;29;20606;-77
2021/12/02 02:50:37;;;;;;;9.48;8.73;;;;;;;;;;4895661;29;20036;-78
2021/12/02 02:53:05;;;;;;;9.10;8.38;;;;;;;;;;4895712;29;20040;-76
2021/12/02 02:55:32;;;;;;;8.70;8.10;;;;;;;;;;4894601;29;20348;-78
2021/12/02 03:01:08;;;;;;;9.63;8.90;;;;;;;;;;4893959;29;20034;-77
2021/12/02 03:03:46;;;;;;;9.55;8.77;;;;;;;;;;4892658;29;20077;-77
2021/12/02 03:06:31;;;;;;;9.45;8.85;;;;;;;;;;4889732;29;20032;-76
2021/12/02 03:11:57;;;;;;;9.98;9.20;;;;;;;;;;4896506;29;20104;-77
2021/12/02 03:14:33;;;;;;;10.60;9.50;;;;;;;;;;4902719;29;20032;-77
2021/12/02 03:16:58;;;;;;;10.20;9.50;;;;;;;;;;4901366;29;20081;-77
2021/12/02 03:19:28;;;;;;;9.88;9.18;;;;;;;;;;4898103;29;20044;-75
2021/12/02 03:21:56;;;;;;;9.77;9.23;;;;;;;;;;4896038;29;20080;-77
2021/12/02 03:24:22;;;;;;;9.57;8.88;;;;;;;;;;4898017;29;20104;-75
2021/12/02 03:26:48;;;;;;;9.73;9.02;;;;;;;;;;4896747;29;20067;-77
2021/12/02 03:29:14;;;;;;;9.73;8.95;;;;;;;;;;4893107;29;20052;-77
2021/12/02 03:31:40;;;;;;;9.63;9.02;;;;;;;;;;4898964;29;20396;-77
2021/12/02 03:34:07;;;;;;;9.02;8.43;;;;;;;;;;4898278;29;20052;-76
2021/12/02 03:36:33;;;;;;;9.80;8.95;;;;;;;;;;4890185;29;20724;-78
2021/12/02 03:39:00;;;;;;;9.82;9.10;;;;;;;;;;4896389;29;20641;-77
2021/12/02 03:41:26;;;;;;;9.60;9.10;;;;;;;;;;4896462;29;20093;-76
2021/12/02 03:43:52;;;;;;;9.85;9.10;;;;;;;;;;4890249;29;20028;-77
2021/12/02 03:46:22;;;;;;;10.00;9.30;;;;;;;;;;4883907;29;20047;-75
2021/12/02 03:48:50;;;;;;;9.13;8.63;;;;;;;;;;4894608;29;20044;-77
2021/12/02 03:51:17;;;;;;;9.23;8.73;;;;;;;;;;4879706;29;20040;-76
2021/12/02 03:53:43;;;;;;;9.60;8.98;;;;;;;;;;4892075;29;20064;-76
2021/12/02 03:56:08;;;;;;;9.73;8.93;;;;;;;;;;4885653;29;20075;-77
2021/12/02 03:58:36;;;;;;;10.23;9.20;;;;;;;;;;4889996;29;20040;-76
2021/12/02 04:01:03;;;;;;;9.23;8.73;;;;;;;;;;4878896;29;20056;-77
2021/12/02 04:03:28;;;;;;;9.95;9.10;;;;;;;;;;4892560;29;20105;-77
2021/12/02 04:05:54;;;;;;;9.50;8.90;;;;;;;;;;4891250;29;20100;-77
2021/12/02 04:08:27;;;;;;;9.63;9.02;;;;;;;;;;4886528;29;20396;-77
2021/12/02 04:10:59;;;;;;;9.00;8.50;;;;;;;;;;4886861;29;20045;-77
2021/12/02 04:13:29;;;;;;;9.70;9.00;;;;;;;;;;4884603;29;20059;-77
2021/12/02 04:15:59;;;;;;;10.98;8.75;;;;;;;;;;4889487;29;20716;-77
2021/12/02 04:18:25;;;;;;;9.57;8.98;;;;;;;;;;4892670;29;20041;-77
2021/12/02 04:20:51;;;;;;;9.30;8.80;;;;;;;;;;4883742;29;20140;-77
2021/12/02 04:23:16;;;;;;;9.13;8.63;;;;;;;;;;4882877;29;20409;-77
2021/12/02 04:25:42;;;;;;;9.20;8.70;;;;;;;;;;4893301;29;20092;-77
2021/12/02 04:28:09;;;;;;;9.55;8.85;;;;;;;;;;4890253;29;20036;-77
2021/12/02 04:30:35;;;;;;;9.95;9.23;;;;;;;;;;4886968;29;20383;-77
2021/12/02 04:33:00;;;;;;;9.68;9.07;;;;;;;;;;4888964;29;20275;-77
2021/12/02 04:35:26;;;;;;;9.68;9.07;;;;;;;;;;4892561;29;20059;-77
2021/12/02 04:37:52;;;;;;;9.57;8.90;;;;;;;;;;4880970;29;20049;-77
2021/12/02 04:40:20;;;;;;;9.18;8.68;;;;;;;;;;4882673;29;20051;-77
2021/12/02 04:42:47;;;;;;;9.50;8.80;;;;;;;;;;4889820;29;20039;-79
2021/12/02 04:45:13;;;;;;;9.05;8.55;;;;;;;;;;4883910;29;20071;-77
2021/12/02 04:47:38;;;;;;;9.05;8.55;;;;;;;;;;4893067;29;20067;-77
2021/12/02 04:50:06;;;;;;;9.82;8.90;;;;;;;;;;4889596;29;20075;-77
2021/12/02 04:52:32;;;;;;;9.20;8.50;;;;;;;;;;4891408;29;20422;-77
2021/12/02 04:54:58;;;;;;;9.80;8.82;;;;;;;;;;4886092;29;20044;-77
2021/12/02 04:57:24;;;;;;;9.27;8.48;;;;;;;;;;4884971;29;20045;-77
2021/12/02 04:59:49;;;;;;;9.52;8.93;;;;;;;;;;4881240;29;20108;-77
2021/12/02 05:02:15;;;;;;;9.60;9.00;;;;;;;;;;4879958;29;20044;-77
2021/12/02 05:04:41;;;;;;;10.23;9.52;;;;;;;;;;4891428;29;20515;-77
2021/12/02 05:07:06;;;;;;;9.68;9.02;;;;;;;;;;4891564;29;20044;-78
2021/12/02 05:09:32;;;;;;;8.93;8.43;;;;;;;;;;4890066;29;20096;-77
2021/12/02 05:11:58;;;;;;;10.00;9.35;;;;;;;;;;4879890;29;20119;-77
2021/12/02 05:14:23;;;;;;;10.10;9.32;;;;;;;;;;4895185;29;20470;-77
2021/12/02 05:16:49;;;;;;;9.68;9.07;;;;;;;;;;4892786;29;20044;-77
2021/12/02 05:19:15;;;;;;;9.25;8.65;;;;;;;;;;4883476;29;20176;-78
2021/12/02 05:21:40;;;;;;;9.68;9.05;;;;;;;;;;4888583;29;20053;-76
2021/12/02 05:24:06;;;;;;;11.10;10.00;;;;;;;;;;4887673;29;20044;-77
2021/12/02 05:26:33;;;;;;;10.02;9.40;;;;;;;;;;4893836;29;20036;-77
2021/12/02 05:28:59;;;;;;;10.45;9.70;;;;;;;;;;4898911;29;20040;-77
2021/12/02 05:31:24;;;;;;;9.95;9.35;;;;;;;;;;4893188;29;20040;-77
2021/12/02 05:33:50;;;;;;;10.35;9.30;;;;;;;;;;4885433;29;20121;-77
2021/12/02 05:36:16;;;;;;;10.70;9.90;;;;;;;;;;4889858;29;20119;-77
2021/12/02 05:38:42;;;;;;;10.77;9.77;;;;;;;;;;4887787;29;20456;-77
2021/12/02 05:41:07;;;;;;;10.20;9.45;;;;;;;;;;4882499;29;20081;-77
2021/12/02 05:43:34;;;;;;;10.40;9.70;;;;;;;;;;4885310;29;20036;-77
2021/12/02 05:46:00;;;;;;;10.55;9.75;;;;;;;;;;4881261;29;20411;-76
2021/12/02 05:48:25;;;;;;;10.23;9.38;;;;;;;;;;4880731;29;20040;-77
2021/12/02 05:50:51;;;;;;;10.07;9.40;;;;;;;;;;4884872;29;20048;-77
2021/12/02 05:53:18;;;;;;;9.43;8.82;;;;;;;;;;4882209;29;20092;-76
2021/12/02 05:55:44;;;;;;;10.13;9.35;;;;;;;;;;4885630;29;20037;-77
2021/12/02 05:58:11;;;;;;;9.93;9.23;;;;;;;;;;4887419;29;20035;-77
2021/12/02 06:00:37;;;;;;;10.63;9.82;;;;;;;;;;4891319;29;20074;-76
2021/12/02 06:03:03;;;;;;;10.50;9.70;;;;;;;;;;4884434;29;20071;-77
2021/12/02 06:05:29;;;;;;;11.00;9.90;;;;;;;;;;4885443;29;20044;-77
2021/12/02 06:07:58;;;;;;;10.27;9.43;;;;;;;;;;4882332;29;20036;-77
2021/12/02 06:10:25;;;;;;;9.77;9.10;;;;;;;;;;4871090;29;20040;-77
2021/12/02 06:12:51;;;;;;;10.43;9.55;;;;;;;;;;4884300;29;20032;-77
2021/12/02 06:15:17;;;;;;;9.38;8.68;;;;;;;;;;4875519;29;20048;-77
2021/12/02 06:17:43;;;;;;;10.00;9.23;;;;;;;;;;4888313;29;20497;-77
2021/12/02 06:20:13;;;;;;;9.90;9.30;;;;;;;;;;4882291;29;20048;-77
2021/12/02 06:22:39;;;;;;;9.05;8.55;;;;;;;;;;4884985;29;20043;-77
2021/12/02 06:27:31;;;;;;;9.13;8.63;;;;;;;;;;4885507;29;20058;-77
2021/12/02 06:29:57;;;;;;;9.07;8.48;;;;;;;;;;4886182;29;20040;-77
2021/12/02 06:32:22;;;;;;;9.80;9.20;;;;;;;;;;4886591;29;20489;-76
2021/12/02 06:34:48;;;;;;;9.15;8.65;;;;;;;;;;4882352;29;20036;-75
2021/12/02 06:37:13;;;;;;;10.10;9.25;;;;;;;;;;4885616;29;20063;-76
2021/12/02 06:39:39;;;;;;;9.60;9.00;;;;;;;;;;4889276;29;20068;-76
2021/12/02 06:42:05;;;;;;;9.27;8.77;;;;;;;;;;4889716;29;20071;-77
2021/12/02 06:44:32;;;;;;;9.50;9.00;;;;;;;;;;4879451;29;20043;-76
2021/12/02 06:46:57;;;;;;;9.80;9.20;;;;;;;;;;4886762;29;20460;-77
2021/12/02 06:49:23;;;;;;;10.32;9.52;;;;;;;;;;4887938;29;20048;-75
2021/12/02 06:51:48;;;;;;;10.70;9.93;;;;;;;;;;4881871;29;20048;-76
2021/12/02 06:54:14;;;;;;;10.02;9.43;;;;;;;;;;4883909;29;20039;-75
2021/12/02 06:56:40;;;;;;;10.40;9.70;;;;;;;;;;4889020;29;20036;-75
2021/12/02 06:59:05;;;;;;;11.15;10.23;;;;;;;;;;4888317;29;20040;-75
2021/12/02 07:01:34;;;;;;;11.10;10.18;;;;;;;;;;4887285;29;20547;-75
2021/12/02 07:04:00;;;;;;;20.00;18.05;;;;;;;;;;4877925;29;20072;-75
2021/12/02 07:06:25;;;;;;;13.65;12.35;;;;;;;;;;4880259;29;20065;-76
2021/12/02 07:08:51;;;;;;;14.65;12.82;;;;;;;;;;4884359;29;20040;-75
2021/12/02 07:11:16;;;;;;;18.83;15.88;;;;;;;;;;4888495;29;20039;-76
2021/12/02 07:13:42;;;;;;;12.02;11.13;;;;;;;;;;4885575;29;20637;-76
2021/12/02 07:16:08;;;;;;;10.45;9.75;;;;;;;;;;4886696;29;20036;-76
2021/12/02 07:18:38;;;;;;;11.35;10.48;;;;;;;;;;4885907;29;20041;-76
2021/12/02 07:21:04;;;;;;;17.02;15.40;;;;;;;;;;4891203;29;20068;-75
2021/12/02 07:23:30;;;;;;;21.27;18.35;;;;;;;;;;4889687;29;20049;-75
2021/12/02 07:25:57;;;;;;;18.42;15.55;;;;;;;;;;4880772;29;20128;-75
2021/12/02 07:28:22;;;;;;;11.95;11.00;;;;;;;;;;4886003;29;20391;-75
2021/12/02 07:30:53;;;;;;;11.75;11.05;;;;;;;;;;4881363;29;21279;-75
2021/12/02 07:33:20;;;;;;;11.07;10.35;;;;;;;;;;4888730;29;20496;-74
2021/12/02 07:35:46;;;;;;;11.30;10.40;;;;;;;;;;4892809;29;20044;-76
2021/12/02 07:38:12;;;;;;;11.70;10.90;;;;;;;;;;4890595;29;20052;-76
2021/12/02 07:40:40;;;;;;;11.57;10.80;;;;;;;;;;4887179;29;20041;-76
2021/12/02 07:43:06;;;;;;;11.50;10.70;;;;;;;;;;4888886;29;20043;-75
2021/12/02 07:45:35;;;;;;;11.73;10.70;;;;;;;;;;4893584;29;20041;-76
2021/12/02 07:48:04;;;;;;;11.50;10.55;;;;;;;;;;4891498;29;20040;-76
2021/12/02 07:50:30;;;;;;;11.65;10.95;;;;;;;;;;4884073;29;20042;-75
2021/12/02 07:53:01;;;;;;;10.70;9.95;;;;;;;;;;4885260;29;20051;-77
2021/12/02 07:55:29;;;;;;;10.45;9.75;;;;;;;;;;4879747;29;20048;-76
2021/12/02 07:57:55;;;;;;;10.63;10.02;;;;;;;;;;4885711;29;20037;-75
2021/12/02 08:00:24;;;;;;;11.77;10.77;;;;;;;;;;4884277;29;20144;-76
2021/12/02 08:02:51;;;;;;;11.07;10.40;;;;;;;;;;4883383;29;20124;-77
2021/12/02 08:05:18;;;;;;;11.68;10.77;;;;;;;;;;4883322;29;20033;-76
2021/12/02 08:07:44;;;;;;;11.93;11.02;;;;;;;;;;4899651;29;20346;-74
2021/12/02 08:10:13;;;;;;;12.07;11.35;;;;;;;;;;4906369;29;20471;-76
2021/12/02 08:12:45;;;;;;;12.05;11.13;;;;;;;;;;4909149;29;20051;-75
2021/12/02 08:15:11;;;;;;;11.00;10.30;;;;;;;;;;4901044;29;20040;-76
2021/12/02 08:17:37;;;;;;;12.77;11.88;;;;;;;;;;4904760;29;20034;-75
2021/12/02 08:20:03;;;;;;;12.88;11.73;;;;;;;;;;4899312;29;20059;-76
2021/12/02 08:22:31;;;;;;;11.95;11.15;;;;;;;;;;4885036;29;20100;-76
2021/12/02 08:24:56;;;;;;;11.77;10.98;;;;;;;;;;4885227;29;20393;-77
2021/12/02 08:27:22;;;;;;;11.75;10.85;;;;;;;;;;4890225;29;20095;-77
2021/12/02 08:29:48;;;;;;;11.23;10.60;;;;;;;;;;4889426;29;20048;-75
2021/12/02 08:32:14;;;;;;;11.25;10.45;;;;;;;;;;4875590;29;20131;-77
2021/12/02 08:34:40;;;;;;;10.88;10.20;;;;;;;;;;4887618;29;20614;-76
2021/12/02 08:37:07;;;;;;;10.68;10.05;;;;;;;;;;4880287;29;20569;-76
2021/12/02 08:39:33;;;;;;;11.25;10.55;;;;;;;;;;4896160;29;20033;-75
2021/12/02 08:41:59;;;;;;;11.02;10.32;;;;;;;;;;4882996;29;20029;-77
2021/12/02 08:44:25;;;;;;;12.07;11.10;;;;;;;;;;4890449;29;20092;-76
2021/12/02 08:46:53;;;;;;;12.32;11.15;;;;;;;;;;4885518;29;20108;-77
2021/12/02 08:49:21;;;;;;;11.90;11.10;;;;;;;;;;4885371;29;20205;-76
2021/12/02 08:51:47;;;;;;;11.20;10.50;;;;;;;;;;4889819;29;20028;-76
2021/12/02 08:54:13;;;;;;;12.05;11.25;;;;;;;;;;4877338;29;20041;-75
2021/12/02 08:56:39;;;;;;;11.25;10.60;;;;;;;;;;4882640;29;20052;-77
2021/12/02 08:59:05;;;;;;;10.68;10.02;;;;;;;;;;4893609;29;20044;-77
2021/12/02 09:01:33;;;;;;;11.20;10.50;;;;;;;;;;4887314;29;20386;-78
2021/12/02 09:03:59;;;;;;;11.00;10.30;;;;;;;;;;4891283;29;20083;-77
2021/12/02 09:06:24;;;;;;;11.63;10.73;;;;;;;;;;4888139;29;20028;-77
2021/12/02 09:08:54;;;;;;;11.05;10.45;;;;;;;;;;4870622;29;20044;-76
2021/12/02 09:11:21;;;;;;;11.98;11.10;;;;;;;;;;4885082;29;20044;-77
2021/12/02 09:13:47;;;;;;;11.90;11.10;;;;;;;;;;4894985;29;20051;-76
2021/12/02 09:16:13;;;;;;;12.00;11.20;;;;;;;;;;4882155;29;20040;-77
2021/12/02 09:18:39;;;;;;;11.30;10.45;;;;;;;;;;4881809;29;20056;-77
2021/12/02 09:21:05;;;;;;;11.13;10.45;;;;;;;;;;4888120;29;20045;-77
2021/12/02 09:23:32;;;;;;;10.57;9.98;;;;;;;;;;4880917;29;20044;-77
2021/12/02 09:25:58;;;;;;;11.18;10.48;;;;;;;;;;4877485;29;20139;-75
2021/12/02 09:28:25;;;;;;;10.48;9.88;;;;;;;;;;4890261;29;20523;-76
2021/12/02 09:30:50;;;;;;;10.63;9.93;;;;;;;;;;4889768;29;20440;-77
2021/12/02 09:33:16;;;;;;;10.73;9.85;;;;;;;;;;4883079;29;20036;-76
2021/12/02 09:35:42;;;;;;;10.18;9.50;;;;;;;;;;4886133;29;20029;-77
2021/12/02 09:38:08;;;;;;;10.35;9.75;;;;;;;;;;4894210;29;20155;-76
2021/12/02 09:40:35;;;;;;;10.20;9.50;;;;;;;;;;4883706;29;20079;-77
2021/12/02 09:43:02;;;;;;;10.20;9.50;;;;;;;;;;4885112;29;20535;-76
2021/12/02 09:45:28;;;;;;;10.55;9.52;;;;;;;;;;4888349;29;20047;-77
2021/12/02 09:47:54;;;;;;;10.02;9.43;;;;;;;;;;4894366;29;20064;-77
2021/12/02 09:50:26;;;;;;;9.90;9.30;;;;;;;;;;4892710;29;20032;-76
2021/12/02 09:52:53;;;;;;;9.77;9.05;;;;;;;;;;4888131;29;20734;-76
2021/12/02 09:57:52;;;;;;;9.60;9.00;;;;;;;;;;4877428;29;20448;-77
2021/12/02 10:00:23;;;;;;;9.52;8.93;;;;;;;;;;4885084;29;20065;-77
2021/12/02 10:03:01;;;;;;;9.95;9.25;;;;;;;;;;4887178;29;20441;-77
2021/12/02 10:05:36;;;;;;;9.82;9.23;;;;;;;;;;4886222;29;20055;-77
2021/12/02 10:08:05;;;;;;;9.98;9.27;;;;;;;;;;4882944;29;20665;-77
2021/12/02 10:10:39;;;;;;;9.52;8.93;;;;;;;;;;4889949;29;20040;-76
2021/12/02 10:13:25;;;;;;;10.20;9.60;;;;;;;;;;4880312;29;20095;-76
2021/12/02 10:16:04;;;;;;;10.10;9.38;;;;;;;;;;4881515;29;20048;-76
2021/12/02 10:18:41;;;;;;;10.60;9.90;;;;;;;;;;4880702;29;20051;-77
2021/12/02 10:21:28;;;;;;;10.38;9.77;;;;;;;;;;4881784;29;20045;-77
2021/12/02 10:23:54;;;;;;;10.20;9.60;;;;;;;;;;4889933;29;20080;-76
2021/12/02 10:26:23;;;;;;;10.40;9.70;;;;;;;;;;4884870;29;20131;-76
2021/12/02 10:28:51;;;;;;;10.10;9.40;;;;;;;;;;4888662;29;20318;-76
2021/12/02 10:31:20;;;;;;;9.20;8.60;;;;;;;;;;4884572;29;20036;-76
2021/12/02 10:33:54;;;;;;;9.60;9.00;;;;;;;;;;4887936;29;20299;-77
2021/12/02 10:36:25;;;;;;;10.25;9.63;;;;;;;;;;4882532;29;20075;-76
2021/12/02 10:38:53;;;;;;;9.98;9.18;;;;;;;;;;4886607;29;20654;-77
2021/12/02 10:41:22;;;;;;;9.90;9.30;;;;;;;;;;4900603;29;20037;-78
2021/12/02 10:44:01;;;;;;;10.77;10.02;;;;;;;;;;4894028;29;20215;-77
2021/12/02 10:46:27;;;;;;;10.80;10.20;;;;;;;;;;4889703;29;20124;-77
2021/12/02 10:48:53;;;;;;;11.10;10.30;;;;;;;;;;4893386;29;20528;-77
2021/12/02 10:51:38;;;;;;;11.05;10.25;;;;;;;;;;4888264;29;20032;-75
2021/12/02 10:54:14;;;;;;;10.95;10.27;;;;;;;;;;4872529;29;20067;-78
2021/12/02 10:56:43;;;;;;;11.63;10.77;;;;;;;;;;4909851;29;20473;-76
2021/12/02 10:59:32;;;;;;;11.10;10.40;;;;;;;;;;4892600;29;20680;-78
2021/12/02 11:02:05;;;;;;;10.77;10.13;;;;;;;;;;4892233;29;20620;-77
2021/12/02 11:04:38;;;;;;;10.80;10.10;;;;;;;;;;4881846;29;20493;-75
2021/12/02 11:07:09;;;;;;;10.32;9.63;;;;;;;;;;4882284;29;20047;-76
2021/12/02 11:09:35;;;;;;;12.07;11.10;;;;;;;;;;4902387;29;20036;-76
2021/12/02 11:12:25;;;;;;;10.45;9.75;;;;;;;;;;4899554;29;20422;-77
2021/12/02 11:14:53;;;;;;;10.65;10.00;;;;;;;;;;4894664;29;20548;-78
2021/12/02 11:17:20;;;;;;;10.77;10.18;;;;;;;;;;4896507;29;20506;-76
2021/12/02 11:19:48;;;;;;;11.45;10.45;;;;;;;;;;4894408;29;20040;-76
2021/12/02 11:22:17;;;;;;;10.52;9.57;;;;;;;;;;4892387;29;20044;-77
2021/12/02 11:24:45;;;;;;;10.40;9.60;;;;;;;;;;4893090;29;20036;-77
2021/12/02 11:27:39;;;;;;;9.90;9.30;;;;;;;;;;4888448;29;20053;-77
2021/12/02 11:30:14;;;;;;;10.50;9.68;;;;;;;;;;4890726;29;20546;-77
2021/12/02 11:32:57;;;;;;;9.10;8.50;;;;;;;;;;4890007;29;20490;-77
2021/12/02 11:35:28;;;;;;;9.20;8.70;;;;;;;;;;4891125;29;20052;-77
2021/12/02 11:37:56;;;;;;;9.63;9.02;;;;;;;;;;4902525;29;20052;-76
2021/12/02 11:40:28;;;;;;;9.90;9.25;;;;;;;;;;4891601;29;20037;-76
2021/12/02 11:42:55;;;;;;;9.52;8.93;;;;;;;;;;4892477;29;20104;-77
2021/12/02 11:45:24;;;;;;;10.73;9.93;;;;;;;;;;4892761;29;20100;-77
2021/12/02 11:47:51;;;;;;;9.70;9.10;;;;;;;;;;4882186;29;20089;-78
2021/12/02 11:50:19;;;;;;;10.95;10.18;;;;;;;;;;4893652;29;20487;-76
2021/12/02 11:52:45;;;;;;;10.88;10.13;;;;;;;;;;4893660;29;21318;-78
2021/12/02 11:55:24;;;;;;;10.57;9.98;;;;;;;;;;4890390;29;20356;-77
2021/12/02 11:57:50;;;;;;;10.90;10.00;;;;;;;;;;4891862;29;20074;-75
2021/12/02 12:00:20;;;;;;;10.88;10.18;;;;;;;;;;4892837;29;20076;-77
2021/12/02 12:02:51;;;;;;;15.52;11.35;;;;;;;;;;4888042;29;20044;-76
2021/12/02 12:05:24;;;;;;;12.50;11.50;;;;;;;;;;4894155;29;20048;-77
2021/12/02 12:07:49;;;;;;;12.32;11.30;;;;;;;;;;4890540;29;20419;-77
2021/12/02 12:10:39;;;;;;;11.55;10.75;;;;;;;;;;4893500;29;20058;-76
2021/12/02 12:13:11;;;;;;;;;;;;;;;;;;4896111;29;20042;-76
2021/12/02 12:15:46;;;;;;;12.10;11.27;;;;;;;;;;4895341;29;19967;-77
2021/12/02 12:18:19;;;;;;;12.00;11.10;;;;;;;;;;4898703;29;20037;-76
2021/12/02 12:20:54;;;;;;;11.77;10.88;;;;;;;;;;4896357;29;20045;-77
2021/12/02 12:23:42;;;;;;;11.77;10.77;;;;;;;;;;4910391;29;20065;-77
2021/12/02 12:26:17;;;;;;;13.07;11.97;;;;;;;;;;4892885;29;20048;-77
2021/12/02 12:31:49;;;;;;;13.60;12.57;;;;;;;;;;4894039;29;20059;-78
2021/12/02 12:34:30;;;;;;;14.48;13.18;;;;;;;;;;4894139;29;20043;-75
2021/12/02 12:37:24;;;;;;;14.20;13.20;;;;;;;;;;4889625;29;20520;-77
2021/12/02 12:40:17;;;;;;;15.80;14.30;;;;;;;;;;4876605;29;20041;-77
2021/12/02 12:43:11;;;;;;;15.52;14.40;;;;;;;;;;4890460;29;20688;-77
2021/12/02 12:45:42;;;;;;;14.18;13.07;;;;;;;;;;4894674;29;20435;-77
2021/12/02 12:48:24;;;;;;;12.98;12.07;;;;;;;;;;4895386;29;21279;-76
2021/12/02 12:50:49;;;;;;;13.00;11.98;;;;;;;;;;4892581;29;20047;-76
2021/12/02 12:53:40;;;;;;;14.20;13.10;;;;;;;;;;4895273;29;20044;-77
2021/12/02 12:56:08;;;;;;;14.45;13.32;;;;;;;;;;4892562;29;20060;-77
2021/12/02 12:58:37;;;;;;;13.45;12.55;;;;;;;;;;4885629;29;20048;-77
2021/12/02 13:01:20;;;;;;;13.77;12.77;;;;;;;;;;4891693;29;20051;-77
2021/12/02 13:04:07;;;;;;;12.70;11.73;;;;;;;;;;4894467;29;20092;-77
2021/12/02 13:06:48;;;;;;;12.88;11.88;;;;;;;;;;4903122;29;20080;-76
2021/12/02 13:09:45;;;;;;;11.88;10.85;;;;;;;;;;4908050;29;20041;-73
2021/12/02 13:12:18;;;;;;;12.60;11.68;;;;;;;;;;4893832;29;20130;-73
2021/12/02 13:14:48;;;;;;;11.43;10.70;;;;;;;;;;4890834;29;20044;-73
2021/12/02 13:17:35;;;;;;;12.20;11.30;;;;;;;;;;4881423;29;20048;-75
2021/12/02 13:20:16;;;;;;;11.80;10.80;;;;;;;;;;4900513;29;20803;-77
2021/12/02 13:22:41;;;;;;;12.20;11.30;;;;;;;;;;4893432;29;20083;-77
2021/12/02 13:25:27;;;;;;;11.55;10.80;;;;;;;;;;4882062;29;20072;-78
2021/12/02 13:27:53;;;;;;;12.30;11.40;;;;;;;;;;4891445;29;20051;-76
2021/12/02 13:30:19;;;;;;;11.45;10.65;;;;;;;;;;4895717;29;20041;-76
2021/12/02 13:32:50;;;;;;;11.88;10.88;;;;;;;;;;4872398;29;20040;-78
2021/12/02 13:35:26;;;;;;;11.50;10.77;;;;;;;;;;4890608;29;20088;-77
2021/12/02 13:38:03;;;;;;;10.98;10.27;;;;;;;;;;4892170;29;20032;-77
2021/12/02 13:40:36;;;;;;;11.52;10.70;;;;;;;;;;4889174;29;20041;-75
2021/12/02 13:43:03;;;;;;;10.95;10.00;;;;;;;;;;4886297;29;20160;-75
2021/12/02 13:45:30;;;;;;;11.50;10.70;;;;;;;;;;4885098;29;20518;-76
2021/12/02 13:48:16;;;;;;;11.43;10.73;;;;;;;;;;4886602;29;20080;-77
2021/12/02 13:50:47;;;;;;;11.15;10.25;;;;;;;;;;4894187;29;20072;-76
2021/12/02 13:53:13;;;;;;;11.38;10.57;;;;;;;;;;4884469;29;20144;-76
2021/12/02 13:55:41;;;;;;;10.95;10.32;;;;;;;;;;4880278;29;20451;-76
2021/12/02 14:00:42;;;;;;;11.13;10.10;;;;;;;;;;4887502;29;20037;-76
2021/12/02 14:03:09;;;;;;;;;;;;;;;;;;4885884;29;20049;-75
2021/12/02 14:05:43;;;;;;;11.00;10.30;;;;;;;;;;4889488;29;19973;-75
2021/12/02 14:08:11;;;;;;;11.45;10.75;;;;;;;;;;4887537;29;20080;-78
2021/12/02 14:10:39;;;;;;;11.73;10.63;;;;;;;;;;4891412;29;20655;-74
2021/12/02 14:13:14;;;;;;;11.88;10.70;;;;;;;;;;4872418;29;20056;-76
2021/12/02 14:15:45;;;;;;;11.63;10.70;;;;;;;;;;4887065;29;20045;-78
2021/12/02 14:18:24;;;;;;;11.57;10.75;;;;;;;;;;4884073;29;20425;-77
2021/12/02 14:20:56;;;;;;;10.98;10.20;;;;;;;;;;4881259;29;20048;-77
2021/12/02 14:23:27;;;;;;;11.40;10.60;;;;;;;;;;4883073;29;20088;-77
2021/12/02 14:26:11;;;;;;;10.82;10.10;;;;;;;;;;4888695;29;20072;-77
2021/12/02 14:28:44;;;;;;;10.90;10.23;;;;;;;;;;4886059;29;20650;-77
2021/12/02 14:31:29;;;;;;;10.52;9.70;;;;;;;;;;4886096;29;20088;-77
2021/12/02 14:33:57;;;;;;;10.85;10.15;;;;;;;;;;4881295;29;20662;-77
2021/12/02 14:36:25;;;;;;;11.10;10.18;;;;;;;;;;4886068;29;20108;-77
2021/12/02 14:39:09;;;;;;;10.20;9.55;;;;;;;;;;4888553;29;20033;-77
2021/12/02 14:41:38;;;;;;;10.25;9.45;;;;;;;;;;4889019;29;20396;-77
2021/12/02 14:44:08;;;;;;;10.52;9.63;;;;;;;;;;4878108;29;20041;-77
2021/12/02 14:46:39;;;;;;;10.40;9.80;;;;;;;;;;4887418;29;20103;-76
2021/12/02 14:49:07;;;;;;;11.85;10.70;;;;;;;;;;4882206;29;20214;-77
2021/12/02 14:55:29;;;;;;;10.85;10.10;;;;;;;;;;4879706;29;20133;-77
2021/12/02 14:57:57;;;;;;;15.75;12.95;;;;;;;;;;4876477;29;20049;-77
2021/12/02 15:00:23;;;;;;;13.73;12.70;;;;;;;;;;4893465;29;20040;-78
2021/12/02 15:02:56;;;;;;;12.48;11.38;;;;;;;;;;4900235;29;20044;-77
2021/12/02 15:05:24;;;;;;;11.95;10.98;;;;;;;;;;4905096;29;20044;-76
2021/12/02 15:08:04;;;;;;;12.32;11.00;;;;;;;;;;4910477;29;20035;-76
2021/12/02 15:10:35;;;;;;;11.30;10.25;;;;;;;;;;4908615;29;20092;-76
2021/12/02 15:13:03;;;;;;;11.43;10.48;;;;;;;;;;4921568;29;20044;-75
2021/12/02 15:15:29;;;;;;;11.30;10.30;;;;;;;;;;4900813;29;20045;-77